Glen Rover — CFN6090 — position and weather

sailwx.info

Track history (hours):
 
Tides and Currents Weather Stations Pressure Air Temp Water Temp Dewpoint Dewpoint Depression Visibility Wind Speed Wind Dir Waves Ship Positions

Glen Rover

Last reported at 2018-Jun-21 04:29 UTC. Time now 2018-Jun-21 04:53 UTC.
Position N 49°58' W 125°09'.

Type: Tug. MMSI: 316016916.

Date/timePositionNaut miles runAvg speedWind from/ knotsBaromVisibWave heightAir tempDewpointWater temp
2018-Jun-21 04:29N 49°58' W 125°09'710.2
2018-Jun-21 03:50N 50°04' W 125°15'3 7.6
2018-Jun-21 03:30N 50°05' W 125°18'0 0.1
2018-Jun-21 03:00N 50°05' W 125°18'2 3.0
2018-Jun-21 02:30N 50°07' W 125°18'4 0.1
2018-Jun-19 05:46N 50°10' W 125°22'2 7.4
2018-Jun-19 05:30N 50°08' W 125°21'3 5.5
2018-Jun-19 05:00N 50°06' W 125°19'0 0.5
2018-Jun-19 04:30N 50°06' W 125°19'0 0.7
2018-Jun-19 04:00N 50°06' W 125°18'1 1.2
2018-Jun-19 03:30N 50°05' W 125°18'0 0.7
2018-Jun-19 02:58N 50°05' W 125°18'0 0.0
2018-Jun-19 02:28N 50°05' W 125°18'0 0.0
2018-Jun-19 01:58N 50°05' W 125°18'0 0.0
2018-Jun-19 01:28N 50°05' W 125°18'0 0.0
2018-Jun-19 00:58N 50°05' W 125°18'0 0.0
2018-Jun-19 00:28N 50°05' W 125°18'0 0.0
2018-Jun-18 23:58N 50°05' W 125°18'0 0.0
2018-Jun-18 23:28N 50°05' W 125°18'0 0.0
2018-Jun-18 22:58N 50°05' W 125°18'0 0.0
2018-Jun-18 22:28N 50°05' W 125°18'0 0.0
2018-Jun-18 21:55N 50°05' W 125°18'0 0.0
2018-Jun-18 21:28N 50°05' W 125°18'0 0.0
2018-Jun-18 20:58N 50°05' W 125°18'0 0.0
2018-Jun-18 20:25N 50°05' W 125°18'0 0.0
2018-Jun-18 19:58N 50°05' W 125°18'0 0.0
2018-Jun-18 19:28N 50°05' W 125°18'0 0.0
2018-Jun-18 18:58N 50°05' W 125°18'0 0.0
2018-Jun-18 18:28N 50°05' W 125°18'0 0.0
2018-Jun-18 17:58N 50°05' W 125°18'0 0.0
2018-Jun-18 17:28N 50°05' W 125°18'0 0.0
2018-Jun-18 16:58N 50°05' W 125°18'0 0.0
2018-Jun-18 16:28N 50°05' W 125°18'0 0.0
2018-Jun-18 15:58N 50°05' W 125°18'0 0.0
2018-Jun-18 15:28N 50°05' W 125°18'0 0.0
2018-Jun-18 14:58N 50°05' W 125°18'0 0.0
2018-Jun-18 14:28N 50°05' W 125°18'0 0.0
2018-Jun-18 13:58N 50°05' W 125°18'0 0.0
2018-Jun-18 13:28N 50°05' W 125°18'2 3.1
2018-Jun-18 12:58N 50°07' W 125°18'3 1.0
2018-Jun-18 09:55N 50°08' W 125°23'0 0.0
2018-Jun-18 08:28N 50°08' W 125°23'0 1.1
2018-Jun-18 08:00N 50°08' W 125°22'1 1.3
2018-Jun-18 07:28N 50°08' W 125°21'0 0.4
2018-Jun-18 07:00N 50°08' W 125°21'3 6.3
2018-Jun-18 06:30N 50°11' W 125°22'13 0.9
2018-Jun-17 16:18N 50°19' W 125°05'2 6.3
2018-Jun-17 15:56N 50°17' W 125°02'3 6.0
2018-Jun-17 15:30N 50°15' W 124°60'3 6.9
2018-Jun-17 15:00N 50°12' W 124°57'4 7.0
2018-Jun-17 14:30N 50°09' W 124°54'4 6.7
2018-Jun-17 13:58N 50°05' W 124°52'3 6.0
2018-Jun-17 13:29N 50°03' W 124°51'3 6.1
2018-Jun-17 12:57N 49°60' W 124°50'3 6.5
2018-Jun-17 12:28N 49°58' W 124°46'3 5.9
2018-Jun-17 11:58N 49°56' W 124°42'3 6.5
2018-Jun-17 11:30N 49°54' W 124°39'5 6.6
2018-Jun-17 10:45N 49°50' W 124°34'75 5.0
2018-Jun-16 19:44N 48°46' W 123°34'1 5.4
2018-Jun-16 19:30N 48°45' W 123°34'3 5.1
2018-Jun-16 19:00N 48°42' W 123°32'3 5.8
2018-Jun-16 18:30N 48°40' W 123°31'4 4.1
2018-Jun-16 17:26N 48°35' W 123°31'0 0.0
2018-Jun-16 14:12N 48°35' W 123°31'0 0.0
2018-Jun-16 13:42N 48°35' W 123°31'0 0.0
2018-Jun-16 13:26N 48°35' W 123°31'0 0.0
2018-Jun-16 12:53N 48°35' W 123°31'4 1.6
2018-Jun-16 10:27N 48°39' W 123°31'410.2
2018-Jun-16 10:01N 48°43' W 123°33'10510.0
2018-Jun-15 23:33N 50°04' W 125°15'116.5
2018-Jun-15 23:30N 50°05' W 125°16'2 3.5
2018-Jun-15 22:59N 50°05' W 125°18'0 0.0
2018-Jun-15 22:29N 50°05' W 125°18'3 6.0
2018-Jun-15 22:00N 50°07' W 125°21'0 0.2
2018-Jun-15 20:56N 50°07' W 125°22'  
2018-Jun-13 03:21N 50°11' W 125°22'410.8
2018-Jun-13 02:59N 50°07' W 125°19'2 3.4
2018-Jun-13 02:28N 50°05' W 125°18'0 0.0
2018-Jun-13 01:58N 50°05' W 125°18'0 0.0
2018-Jun-13 01:28N 50°05' W 125°18'0 0.0
2018-Jun-13 00:58N 50°05' W 125°18'0 0.0
2018-Jun-13 00:28N 50°05' W 125°18'0 0.0
2018-Jun-12 23:58N 50°05' W 125°18'0 0.0
2018-Jun-12 23:28N 50°05' W 125°18'0 0.0
2018-Jun-12 22:58N 50°05' W 125°18'0 0.0
2018-Jun-12 22:28N 50°05' W 125°18'0 0.1
2018-Jun-12 21:58N 50°05' W 125°18'0 0.0
2018-Jun-12 21:28N 50°05' W 125°18'0 0.0
2018-Jun-12 20:58N 50°05' W 125°18'0 0.1
2018-Jun-12 20:28N 50°05' W 125°18'2 4.9
2018-Jun-12 20:00N 50°04' W 125°16'3 5.1
2018-Jun-12 19:30N 50°01' W 125°14'2 4.8
2018-Jun-12 19:00N 49°60' W 125°12'4 6.7
2018-Jun-12 18:29N 49°58' W 125°07'11 8.8
2018-Jun-12 17:13N 49°52' W 124°52'  
Track history (hours):
 
Tides and Currents Weather Stations Pressure Air Temp Water Temp Dewpoint Dewpoint Depression Visibility Wind Speed Wind Dir Waves Ship Positions

Glen Rover

Last reported at 2018-Jun-21 04:29 UTC. Time now 2018-Jun-21 04:53 UTC.
Position N 49°58' W 125°09'.

Type: Tug. MMSI: 316016916.

Date/timePositionNaut miles runAvg speedWind from/ knotsBaromVisibWave heightAir tempDewpointWater temp
2018-Jun-21 04:29N 49°58' W 125°09'710.2
2018-Jun-21 03:50N 50°04' W 125°15'3 7.6
2018-Jun-21 03:30N 50°05' W 125°18'0 0.1
2018-Jun-21 03:00N 50°05' W 125°18'2 3.0
2018-Jun-21 02:30N 50°07' W 125°18'4 0.1
2018-Jun-19 05:46N 50°10' W 125°22'2 7.4
2018-Jun-19 05:30N 50°08' W 125°21'3 5.5
2018-Jun-19 05:00N 50°06' W 125°19'0 0.5
2018-Jun-19 04:30N 50°06' W 125°19'0 0.7
2018-Jun-19 04:00N 50°06' W 125°18'1 1.2
2018-Jun-19 03:30N 50°05' W 125°18'0 0.7
2018-Jun-19 02:58N 50°05' W 125°18'0 0.0
2018-Jun-19 02:28N 50°05' W 125°18'0 0.0
2018-Jun-19 01:58N 50°05' W 125°18'0 0.0
2018-Jun-19 01:28N 50°05' W 125°18'0 0.0
2018-Jun-19 00:58N 50°05' W 125°18'0 0.0
2018-Jun-19 00:28N 50°05' W 125°18'0 0.0
2018-Jun-18 23:58N 50°05' W 125°18'0 0.0
2018-Jun-18 23:28N 50°05' W 125°18'0 0.0
2018-Jun-18 22:58N 50°05' W 125°18'0 0.0
2018-Jun-18 22:28N 50°05' W 125°18'0 0.0
2018-Jun-18 21:55N 50°05' W 125°18'0 0.0
2018-Jun-18 21:28N 50°05' W 125°18'0 0.0
2018-Jun-18 20:58N 50°05' W 125°18'0 0.0
2018-Jun-18 20:25N 50°05' W 125°18'0 0.0
2018-Jun-18 19:58N 50°05' W 125°18'0 0.0
2018-Jun-18 19:28N 50°05' W 125°18'0 0.0
2018-Jun-18 18:58N 50°05' W 125°18'0 0.0
2018-Jun-18 18:28N 50°05' W 125°18'0 0.0
2018-Jun-18 17:58N 50°05' W 125°18'0 0.0
2018-Jun-18 17:28N 50°05' W 125°18'0 0.0
2018-Jun-18 16:58N 50°05' W 125°18'0 0.0
2018-Jun-18 16:28N 50°05' W 125°18'0 0.0
2018-Jun-18 15:58N 50°05' W 125°18'0 0.0
2018-Jun-18 15:28N 50°05' W 125°18'0 0.0
2018-Jun-18 14:58N 50°05' W 125°18'0 0.0
2018-Jun-18 14:28N 50°05' W 125°18'0 0.0
2018-Jun-18 13:58N 50°05' W 125°18'0 0.0
2018-Jun-18 13:28N 50°05' W 125°18'2 3.1
2018-Jun-18 12:58N 50°07' W 125°18'3 1.0
2018-Jun-18 09:55N 50°08' W 125°23'0 0.0
2018-Jun-18 08:28N 50°08' W 125°23'0 1.1
2018-Jun-18 08:00N 50°08' W 125°22'1 1.3
2018-Jun-18 07:28N 50°08' W 125°21'0 0.4
2018-Jun-18 07:00N 50°08' W 125°21'3 6.3
2018-Jun-18 06:30N 50°11' W 125°22'13 0.9
2018-Jun-17 16:18N 50°19' W 125°05'2 6.3
2018-Jun-17 15:56N 50°17' W 125°02'3 6.0
2018-Jun-17 15:30N 50°15' W 124°60'3 6.9
2018-Jun-17 15:00N 50°12' W 124°57'4 7.0
2018-Jun-17 14:30N 50°09' W 124°54'4 6.7
2018-Jun-17 13:58N 50°05' W 124°52'3 6.0
2018-Jun-17 13:29N 50°03' W 124°51'3 6.1
2018-Jun-17 12:57N 49°60' W 124°50'3 6.5
2018-Jun-17 12:28N 49°58' W 124°46'3 5.9
2018-Jun-17 11:58N 49°56' W 124°42'3 6.5
2018-Jun-17 11:30N 49°54' W 124°39'5 6.6
2018-Jun-17 10:45N 49°50' W 124°34'75 5.0
2018-Jun-16 19:44N 48°46' W 123°34'1 5.4
2018-Jun-16 19:30N 48°45' W 123°34'3 5.1
2018-Jun-16 19:00N 48°42' W 123°32'3 5.8
2018-Jun-16 18:30N 48°40' W 123°31'4 4.1
2018-Jun-16 17:26N 48°35' W 123°31'0 0.0
2018-Jun-16 14:12N 48°35' W 123°31'0 0.0
2018-Jun-16 13:42N 48°35' W 123°31'0 0.0
2018-Jun-16 13:26N 48°35' W 123°31'0 0.0
2018-Jun-16 12:53N 48°35' W 123°31'4 1.6
2018-Jun-16 10:27N 48°39' W 123°31'410.2
2018-Jun-16 10:01N 48°43' W 123°33'10510.0
2018-Jun-15 23:33N 50°04' W 125°15'116.5
2018-Jun-15 23:30N 50°05' W 125°16'2 3.5
2018-Jun-15 22:59N 50°05' W 125°18'0 0.0
2018-Jun-15 22:29N 50°05' W 125°18'3 6.0
2018-Jun-15 22:00N 50°07' W 125°21'0 0.2
2018-Jun-15 20:56N 50°07' W 125°22'  
2018-Jun-13 03:21N 50°11' W 125°22'410.8
2018-Jun-13 02:59N 50°07' W 125°19'2 3.4
2018-Jun-13 02:28N 50°05' W 125°18'0 0.0
2018-Jun-13 01:58N 50°05' W 125°18'0 0.0
2018-Jun-13 01:28N 50°05' W 125°18'0 0.0
2018-Jun-13 00:58N 50°05' W 125°18'0 0.0
2018-Jun-13 00:28N 50°05' W 125°18'0 0.0
2018-Jun-12 23:58N 50°05' W 125°18'0 0.0
2018-Jun-12 23:28N 50°05' W 125°18'0 0.0
2018-Jun-12 22:58N 50°05' W 125°18'0 0.0
2018-Jun-12 22:28N 50°05' W 125°18'0 0.1
2018-Jun-12 21:58N 50°05' W 125°18'0 0.0
2018-Jun-12 21:28N 50°05' W 125°18'0 0.0
2018-Jun-12 20:58N 50°05' W 125°18'0 0.1
2018-Jun-12 20:28N 50°05' W 125°18'2 4.9
2018-Jun-12 20:00N 50°04' W 125°16'3 5.1
2018-Jun-12 19:30N 50°01' W 125°14'2 4.8
2018-Jun-12 19:00N 49°60' W 125°12'4 6.7
2018-Jun-12 18:29N 49°58' W 125°07'11 8.8
2018-Jun-12 17:13N 49°52' W 124°52'  

Dump ship's entire track history